createdAt,value
2017-08-03T00:00:55.702Z,85.9
2017-08-03T00:01:57.364Z,86.0
2017-08-03T00:02:59.030Z,85.8
2017-08-03T00:04:00.689Z,85.7
2017-08-03T00:05:02.347Z,85.9
2017-08-03T00:06:04.011Z,86.1
2017-08-03T00:07:05.674Z,86.0
2017-08-03T00:08:07.330Z,85.9
2017-08-03T00:09:08.993Z,86.5
2017-08-03T00:10:10.655Z,86.5
2017-08-03T00:11:12.321Z,86.4
2017-08-03T00:12:13.987Z,86.3
2017-08-03T00:13:15.648Z,85.7
2017-08-03T00:14:17.310Z,86.4
2017-08-03T00:15:18.973Z,86.3
2017-08-03T00:16:20.644Z,86.3
2017-08-03T00:17:22.300Z,85.9
2017-08-03T00:18:23.972Z,86.0
2017-08-03T00:19:25.625Z,86.4
2017-08-03T00:20:27.292Z,86.1
2017-08-03T00:21:28.957Z,85.7
2017-08-03T00:22:30.614Z,85.7
2017-08-03T00:23:32.287Z,85.7
2017-08-03T00:24:33.950Z,86.6
2017-08-03T00:25:35.613Z,86.7
2017-08-03T00:26:37.321Z,86.4
2017-08-03T00:27:38.982Z,86.4
2017-08-03T00:28:40.650Z,85.7
2017-08-03T00:29:42.309Z,85.8
2017-08-03T00:30:43.998Z,85.9
2017-08-03T00:31:45.674Z,86.0
2017-08-03T00:32:47.357Z,86.5
2017-08-03T00:33:49.010Z,86.5
2017-08-03T00:34:50.672Z,86.5
2017-08-03T00:35:52.330Z,85.6
2017-08-03T00:36:53.993Z,85.7
2017-08-03T00:37:55.658Z,86.6
2017-08-03T00:38:57.319Z,86.5
2017-08-03T00:39:58.982Z,85.7
2017-08-03T00:41:00.646Z,85.7
2017-08-03T00:42:02.318Z,85.8
2017-08-03T00:43:03.978Z,85.9
2017-08-03T00:44:05.632Z,85.3
2017-08-03T00:45:07.309Z,85.2
2017-08-03T00:46:08.975Z,85.2
2017-08-03T00:47:10.638Z,85.1
2017-08-03T00:48:12.362Z,85.5
2017-08-03T00:49:13.954Z,85.7
2017-08-03T00:50:15.612Z,86.4
2017-08-03T00:51:17.300Z,85.7
2017-08-03T00:52:18.941Z,86.0
2017-08-03T00:53:20.603Z,85.7
2017-08-03T00:54:22.262Z,85.9
2017-08-03T00:55:23.923Z,85.7
2017-08-03T00:56:25.586Z,85.5
2017-08-03T00:57:27.290Z,85.4
2017-08-03T00:58:28.952Z,85.0
2017-08-03T00:59:30.622Z,85.1
2017-08-03T01:00:32.404Z,85.2
2017-08-03T01:01:34.067Z,84.7
2017-08-03T01:02:35.727Z,84.9
2017-08-03T01:03:37.392Z,85.2
2017-08-03T01:04:39.062Z,85.2
2017-08-03T01:05:40.718Z,85.6
2017-08-03T01:06:42.376Z,85.8
2017-08-03T01:07:44.043Z,85.6
2017-08-03T01:08:45.703Z,85.8
2017-08-03T01:09:47.365Z,85.4
2017-08-03T01:10:49.025Z,85.6
2017-08-03T01:11:50.682Z,85.7
2017-08-03T01:12:52.343Z,85.4
2017-08-03T01:13:54.008Z,85.7
2017-08-03T01:14:55.673Z,85.7
2017-08-03T01:15:57.335Z,85.5
2017-08-03T01:16:58.996Z,85.6
2017-08-03T01:18:00.649Z,85.9
2017-08-03T01:19:02.311Z,85.8
2017-08-03T01:20:03.967Z,85.4
2017-08-03T01:21:05.639Z,85.9
2017-08-03T01:22:07.309Z,86.2
2017-08-03T01:23:08.966Z,86.6
2017-08-03T01:24:10.629Z,85.7
2017-08-03T01:25:12.286Z,85.7
2017-08-03T01:26:13.950Z,85.6
2017-08-03T01:27:15.613Z,85.7
2017-08-03T01:28:17.273Z,85.9
2017-08-03T01:29:19.007Z,86.3
2017-08-03T01:30:20.670Z,85.6
2017-08-03T01:31:22.337Z,85.8
2017-08-03T01:32:24.000Z,85.6
2017-08-03T01:33:25.674Z,85.8
2017-08-03T01:34:27.331Z,86.0
2017-08-03T01:35:28.994Z,85.7
2017-08-03T01:36:30.662Z,85.7
2017-08-03T01:37:32.322Z,85.8
2017-08-03T01:38:33.980Z,86.1
2017-08-03T01:39:35.699Z,86.5
2017-08-03T01:40:37.355Z,86.5
2017-08-03T01:41:39.016Z,85.6
2017-08-03T01:42:40.684Z,85.2
2017-08-03T01:43:42.345Z,85.4
2017-08-03T01:44:44.016Z,85.2
2017-08-03T01:45:45.681Z,85.4
2017-08-03T01:46:47.341Z,85.2
2017-08-03T01:47:49.007Z,85.4
2017-08-03T01:48:50.667Z,85.9
2017-08-03T01:49:52.331Z,85.9
2017-08-03T01:50:53.993Z,85.6
2017-08-03T01:51:55.654Z,85.7
2017-08-03T01:52:57.316Z,85.4
2017-08-03T01:53:58.983Z,85.3
2017-08-03T01:55:00.637Z,85.5
2017-08-03T01:56:02.300Z,85.1
2017-08-03T01:57:04.004Z,85.1
2017-08-03T01:58:05.681Z,84.5
2017-08-03T01:59:07.365Z,85.2
2017-08-03T02:00:09.023Z,84.6
2017-08-03T02:01:10.695Z,84.8
2017-08-03T02:02:12.340Z,84.5
2017-08-03T02:03:14.000Z,85.0
2017-08-03T02:04:15.664Z,84.5
2017-08-03T02:05:17.323Z,84.5
2017-08-03T02:06:18.988Z,84.9
2017-08-03T02:07:20.646Z,85.3
2017-08-03T02:08:22.400Z,85.2
2017-08-03T02:09:24.065Z,84.9
2017-08-03T02:10:25.729Z,85.2
2017-08-03T02:11:27.390Z,85.4
2017-08-03T02:12:29.047Z,85.0
2017-08-03T02:13:30.712Z,85.1
2017-08-03T02:14:32.374Z,85.2
2017-08-03T02:15:34.032Z,85.1
2017-08-03T02:16:35.698Z,85.1
2017-08-03T02:17:37.356Z,86.3
2017-08-03T02:18:39.020Z,85.7
2017-08-03T02:19:40.702Z,85.3
2017-08-03T02:20:42.364Z,85.8
2017-08-03T02:21:44.025Z,85.8
2017-08-03T02:22:45.685Z,85.9
2017-08-03T02:23:47.344Z,85.9
2017-08-03T02:24:49.005Z,85.6
2017-08-03T02:25:50.665Z,85.7
2017-08-03T02:26:52.350Z,86.0
2017-08-03T02:27:53.994Z,85.9
2017-08-03T02:28:55.651Z,85.9
2017-08-03T02:29:57.314Z,86.2
2017-08-03T02:30:58.974Z,85.8
2017-08-03T02:32:00.636Z,85.7
2017-08-03T02:33:02.309Z,86.0
2017-08-03T02:34:03.965Z,85.9
2017-08-03T02:35:05.629Z,85.7
2017-08-03T02:36:07.290Z,85.7
2017-08-03T02:37:08.949Z,85.1
2017-08-03T02:38:10.609Z,85.1
2017-08-03T02:39:12.268Z,85.2
2017-08-03T02:40:13.934Z,85.7
2017-08-03T02:41:15.597Z,85.2
2017-08-03T02:42:17.265Z,86.1
2017-08-03T02:43:18.923Z,85.7
2017-08-03T02:44:20.585Z,85.2
2017-08-03T02:45:22.797Z,85.3
2017-08-03T02:46:24.456Z,85.4
2017-08-03T02:47:26.124Z,85.2
2017-08-03T02:48:28.711Z,84.9
2017-08-03T02:49:30.393Z,84.9
2017-08-03T02:50:32.055Z,84.1
2017-08-03T02:51:33.714Z,84.5
2017-08-03T02:52:35.379Z,84.1
2017-08-03T02:53:37.037Z,84.0
2017-08-03T02:54:38.701Z,84.3
2017-08-03T02:55:40.362Z,84.7
2017-08-03T02:56:42.026Z,84.7
2017-08-03T02:57:43.687Z,84.3
2017-08-03T02:58:45.347Z,84.1
2017-08-03T02:59:47.012Z,84.1
2017-08-03T03:00:48.670Z,84.2
2017-08-03T03:01:50.338Z,83.9
2017-08-03T03:02:52.010Z,84.3
2017-08-03T03:03:53.674Z,84.0
2017-08-03T03:04:55.334Z,84.4
2017-08-03T03:05:57.003Z,84.1
2017-08-03T03:06:58.660Z,83.9
2017-08-03T03:08:00.322Z,84.1
2017-08-03T03:09:01.985Z,84.4
2017-08-03T03:10:03.650Z,84.1
2017-08-03T03:11:05.316Z,84.7
2017-08-03T03:12:06.973Z,84.7
2017-08-03T03:13:08.640Z,84.5
2017-08-03T03:14:10.308Z,84.0
2017-08-03T03:15:11.976Z,84.1
2017-08-03T03:16:13.641Z,84.9
2017-08-03T03:17:15.308Z,84.7
2017-08-03T03:18:16.979Z,84.7
2017-08-03T03:19:18.639Z,84.8
2017-08-03T03:20:20.301Z,84.8
2017-08-03T03:21:21.968Z,84.6
2017-08-03T03:22:23.629Z,84.4
2017-08-03T03:23:25.304Z,84.4
2017-08-03T03:24:26.971Z,84.9
2017-08-03T03:25:28.641Z,84.7
2017-08-03T03:26:30.294Z,84.7
2017-08-03T03:27:31.955Z,84.8
2017-08-03T03:28:33.630Z,84.9
2017-08-03T03:29:35.296Z,84.7
2017-08-03T03:30:36.955Z,84.5
2017-08-03T03:31:38.620Z,84.7
2017-08-03T03:32:40.279Z,84.8
2017-08-03T03:33:41.942Z,84.3
2017-08-03T03:34:43.608Z,84.8
2017-08-03T03:35:45.267Z,84.6
2017-08-03T03:36:46.944Z,84.7
2017-08-03T03:37:48.609Z,84.6
2017-08-03T03:38:50.273Z,84.4
2017-08-03T03:39:51.944Z,84.7
2017-08-03T03:40:53.608Z,84.7
2017-08-03T03:41:55.276Z,84.7
2017-08-03T03:42:56.931Z,85.0
2017-08-03T03:43:58.603Z,85.1
2017-08-03T03:45:00.261Z,84.8
2017-08-03T03:46:01.927Z,84.5
2017-08-03T03:47:03.605Z,84.1
2017-08-03T03:48:05.262Z,84.1
2017-08-03T03:49:06.929Z,84.1
2017-08-03T03:50:08.587Z,84.8
2017-08-03T03:51:10.255Z,84.3
2017-08-03T03:52:11.927Z,84.6
2017-08-03T03:53:13.588Z,84.5
2017-08-03T03:54:15.257Z,84.5
2017-08-03T03:55:16.924Z,84.8
2017-08-03T03:56:18.586Z,84.6
2017-08-03T03:57:20.247Z,84.5
2017-08-03T03:58:21.915Z,84.3
2017-08-03T03:59:23.584Z,84.4
2017-08-03T04:00:25.244Z,84.5
2017-08-03T04:01:26.919Z,84.3
2017-08-03T04:02:28.583Z,85.0
2017-08-03T04:03:30.267Z,84.9
2017-08-03T04:04:31.974Z,84.8
2017-08-03T04:05:33.643Z,84.7
2017-08-03T04:06:35.306Z,84.5
2017-08-03T04:07:36.976Z,85.0
2017-08-03T04:08:38.643Z,85.2
2017-08-03T04:09:40.301Z,85.5
2017-08-03T04:10:41.964Z,85.1
2017-08-03T04:11:43.622Z,85.3
2017-08-03T04:12:45.293Z,85.2
2017-08-03T04:13:46.953Z,85.4
2017-08-03T04:14:48.623Z,86.3
2017-08-03T04:15:50.287Z,85.4
2017-08-03T04:16:51.949Z,85.1
2017-08-03T04:17:53.611Z,84.9
2017-08-03T04:18:55.278Z,85.1
2017-08-03T04:19:56.950Z,85.3
2017-08-03T04:20:58.622Z,85.3
2017-08-03T04:22:00.293Z,85.0
2017-08-03T04:23:01.958Z,85.7
2017-08-03T04:24:03.635Z,85.6
2017-08-03T04:25:05.296Z,86.2
2017-08-03T04:26:06.958Z,85.7
2017-08-03T04:27:08.619Z,86.0
2017-08-03T04:28:10.283Z,85.5
2017-08-03T04:29:11.956Z,85.2
2017-08-03T04:30:13.620Z,85.4
2017-08-03T04:31:15.312Z,85.5
2017-08-03T04:32:16.975Z,85.2
2017-08-03T04:33:18.644Z,85.1
2017-08-03T04:34:20.309Z,85.3
2017-08-03T04:35:21.989Z,85.1
2017-08-03T04:36:23.659Z,85.4
2017-08-03T04:37:25.335Z,84.9
2017-08-03T04:38:26.991Z,85.1
2017-08-03T04:39:28.651Z,85.2
2017-08-03T04:40:30.323Z,85.2
2017-08-03T04:41:32.689Z,85.1
2017-08-03T04:42:34.360Z,85.1
2017-08-03T04:43:36.044Z,84.9
2017-08-03T04:44:37.758Z,85.2
2017-08-03T04:45:39.431Z,84.9
2017-08-03T04:46:41.097Z,84.4
2017-08-03T04:47:42.766Z,84.5
2017-08-03T04:48:44.427Z,84.6
2017-08-03T04:49:46.100Z,84.4
2017-08-03T04:50:47.764Z,84.4
2017-08-03T04:51:49.430Z,84.3
2017-08-03T04:52:51.102Z,84.6
2017-08-03T04:53:52.769Z,84.7
2017-08-03T04:54:54.440Z,84.4
2017-08-03T04:55:56.109Z,84.6
2017-08-03T04:56:57.779Z,84.4
2017-08-03T04:57:59.440Z,84.7
2017-08-03T04:59:01.118Z,84.4
2017-08-03T05:00:02.779Z,84.5
2017-08-03T05:01:04.446Z,84.3
2017-08-03T05:02:06.120Z,84.1
2017-08-03T05:03:07.793Z,83.9
2017-08-03T05:04:09.940Z,84.0
2017-08-03T05:05:11.076Z,84.7
2017-08-03T05:06:12.737Z,84.6
2017-08-03T05:07:14.408Z,84.6
2017-08-03T05:08:16.070Z,84.5
2017-08-03T05:09:17.740Z,84.2
2017-08-03T05:10:19.407Z,83.8
2017-08-03T05:11:21.077Z,84.1
2017-08-03T05:12:22.749Z,83.3
2017-08-03T05:13:24.428Z,83.3
2017-08-03T05:14:26.089Z,83.1
2017-08-03T05:15:27.772Z,83.6
2017-08-03T05:16:29.445Z,83.6
2017-08-03T05:17:31.163Z,83.8
2017-08-03T05:18:32.834Z,84.0
2017-08-03T05:19:34.499Z,83.5
2017-08-03T05:20:36.161Z,83.5
2017-08-03T05:21:37.829Z,83.9
2017-08-03T05:22:39.491Z,84.1
2017-08-03T05:23:41.934Z,83.7
2017-08-03T05:24:43.607Z,83.9
2017-08-03T05:25:45.269Z,84.2
2017-08-03T05:26:46.944Z,84.5
2017-08-03T05:27:48.636Z,84.1
2017-08-03T05:28:50.286Z,84.1
2017-08-03T05:29:51.951Z,83.7
2017-08-03T05:30:53.617Z,83.5
2017-08-03T05:31:55.295Z,83.4
2017-08-03T05:32:56.955Z,84.1
2017-08-03T05:33:58.627Z,84.0
2017-08-03T05:35:00.301Z,84.1
2017-08-03T05:36:01.967Z,84.0
2017-08-03T05:37:03.635Z,83.9
2017-08-03T05:38:05.301Z,84.0
2017-08-03T05:39:06.977Z,84.1
2017-08-03T05:40:08.637Z,84.1
2017-08-03T05:41:10.318Z,84.2
2017-08-03T05:42:11.992Z,83.6
2017-08-03T05:43:13.648Z,82.6
2017-08-03T05:44:15.321Z,82.9
2017-08-03T05:45:16.994Z,83.2
2017-08-03T05:46:18.673Z,83.2
2017-08-03T05:47:20.339Z,83.2
2017-08-03T05:48:22.012Z,82.7
2017-08-03T05:49:23.682Z,82.7
2017-08-03T05:50:25.348Z,82.9
2017-08-03T05:51:27.016Z,82.3
2017-08-03T05:52:28.692Z,82.9
2017-08-03T05:53:30.354Z,82.4
2017-08-03T05:54:32.027Z,82.8
2017-08-03T05:55:33.700Z,82.8
2017-08-03T05:56:35.368Z,82.9
2017-08-03T05:57:37.030Z,82.8
2017-08-03T05:58:38.702Z,82.8
2017-08-03T05:59:40.369Z,82.4
2017-08-03T06:00:42.038Z,82.7
2017-08-03T06:01:43.706Z,82.2
2017-08-03T06:02:45.396Z,82.8
2017-08-03T06:03:47.064Z,82.1
2017-08-03T06:04:48.729Z,81.9
2017-08-03T06:05:50.398Z,82.3
2017-08-03T06:06:52.066Z,82.6
2017-08-03T06:07:53.770Z,81.8
2017-08-03T06:08:55.440Z,82.0
2017-08-03T06:09:57.112Z,81.8
2017-08-03T06:10:58.783Z,81.6
2017-08-03T06:12:00.451Z,81.7
2017-08-03T06:13:02.124Z,81.7
2017-08-03T06:14:03.789Z,82.0
2017-08-03T06:15:05.459Z,81.7
2017-08-03T06:16:07.131Z,81.7
2017-08-03T06:17:08.787Z,82.7
2017-08-03T06:18:10.465Z,82.0
2017-08-03T06:19:12.130Z,81.7
2017-08-03T06:20:13.792Z,82.4
2017-08-03T06:21:15.461Z,82.6
2017-08-03T06:22:17.131Z,81.8
2017-08-03T06:23:18.811Z,82.0
2017-08-03T06:24:20.489Z,81.5
2017-08-03T06:25:22.149Z,81.5
2017-08-03T06:26:23.810Z,81.5
2017-08-03T06:27:25.486Z,81.2
2017-08-03T06:28:27.164Z,81.5
2017-08-03T06:29:28.829Z,81.1
2017-08-03T06:30:30.496Z,81.3
2017-08-03T06:31:32.211Z,81.1
2017-08-03T06:32:33.886Z,81.5
2017-08-03T06:33:35.556Z,81.1
2017-08-03T06:34:37.231Z,81.5
2017-08-03T06:35:38.893Z,81.3
2017-08-03T06:36:40.560Z,81.5
2017-08-03T06:37:42.236Z,81.9
2017-08-03T06:38:43.919Z,81.5
2017-08-03T06:39:45.612Z,81.5
2017-08-03T06:40:47.276Z,81.8
2017-08-03T06:41:48.940Z,81.5
2017-08-03T06:42:50.610Z,81.5
2017-08-03T06:43:52.278Z,81.0
2017-08-03T06:44:53.956Z,80.7
2017-08-03T06:45:55.663Z,80.8
2017-08-03T06:46:57.337Z,80.6
2017-08-03T06:47:58.999Z,81.0
2017-08-03T06:49:00.665Z,80.6
2017-08-03T06:50:02.341Z,81.0
2017-08-03T06:51:04.001Z,81.3
2017-08-03T06:52:05.669Z,80.5
2017-08-03T06:53:07.338Z,81.0
2017-08-03T06:54:09.010Z,80.8
2017-08-03T06:55:10.676Z,80.8
2017-08-03T06:56:12.341Z,80.1
2017-08-03T06:57:14.017Z,80.0
2017-08-03T06:58:15.680Z,80.0
2017-08-03T06:59:17.365Z,80.4
2017-08-03T07:00:19.023Z,80.6
2017-08-03T07:01:20.696Z,79.9
2017-08-03T07:02:22.370Z,80.0
2017-08-03T07:03:24.051Z,80.2
2017-08-03T07:04:25.720Z,80.1
2017-08-03T07:05:27.399Z,79.9
2017-08-03T07:06:29.063Z,79.9
2017-08-03T07:07:30.749Z,80.1
2017-08-03T07:08:32.429Z,79.9
2017-08-03T07:09:34.100Z,80.0
2017-08-03T07:10:35.766Z,80.3
2017-08-03T07:11:37.444Z,80.3
2017-08-03T07:12:39.110Z,80.3
2017-08-03T07:13:40.781Z,80.0
2017-08-03T07:14:42.445Z,80.1
2017-08-03T07:15:44.118Z,79.9
2017-08-03T07:16:45.780Z,79.9
2017-08-03T07:17:47.452Z,79.8
2017-08-03T07:18:49.125Z,80.2
2017-08-03T07:19:50.789Z,79.9
2017-08-03T07:20:52.458Z,80.3
2017-08-03T07:21:54.127Z,79.9
2017-08-03T07:22:55.799Z,79.8
2017-08-03T07:23:57.469Z,80.3
2017-08-03T07:24:59.162Z,80.1
2017-08-03T07:26:00.829Z,79.7
2017-08-03T07:27:02.496Z,79.8
2017-08-03T07:28:04.169Z,80.1
2017-08-03T07:29:05.842Z,79.7
2017-08-03T07:30:07.511Z,80.2
2017-08-03T07:31:09.179Z,79.6
2017-08-03T07:32:10.854Z,80.3
2017-08-03T07:33:12.546Z,80.2
2017-08-03T07:34:14.211Z,80.3
2017-08-03T07:35:15.887Z,79.7
2017-08-03T07:36:17.565Z,79.9
2017-08-03T07:37:19.238Z,79.9
2017-08-03T07:38:20.917Z,79.7
2017-08-03T07:39:22.597Z,79.7
2017-08-03T07:40:24.289Z,79.9
2017-08-03T07:41:25.958Z,79.8
2017-08-03T07:42:27.640Z,79.7
2017-08-03T07:43:29.313Z,80.1
2017-08-03T07:44:30.988Z,80.4
2017-08-03T07:45:32.663Z,80.1
2017-08-03T07:46:34.334Z,80.2
2017-08-03T07:47:36.002Z,79.8
2017-08-03T07:48:37.674Z,80.5
2017-08-03T07:49:39.341Z,80.0
2017-08-03T07:50:41.021Z,80.2
2017-08-03T07:51:42.679Z,80.0
2017-08-03T07:52:44.360Z,80.1
2017-08-03T07:53:46.020Z,80.0
2017-08-03T07:54:47.689Z,80.3
2017-08-03T07:55:49.356Z,80.2
2017-08-03T07:56:51.029Z,80.3
2017-08-03T07:57:52.697Z,79.9
2017-08-03T07:58:54.373Z,80.1
2017-08-03T07:59:56.035Z,80.2
2017-08-03T08:00:57.706Z,80.0
2017-08-03T08:01:59.370Z,80.0
2017-08-03T08:03:01.050Z,79.6
2017-08-03T08:04:02.721Z,79.5
2017-08-03T08:05:04.388Z,79.8
2017-08-03T08:06:06.072Z,79.5
2017-08-03T08:07:07.733Z,79.9
2017-08-03T08:08:09.413Z,80.0
2017-08-03T08:09:11.080Z,80.0
2017-08-03T08:10:12.755Z,79.3
2017-08-03T08:11:14.426Z,79.6
2017-08-03T08:12:16.094Z,79.5
2017-08-03T08:13:17.769Z,79.1
2017-08-03T08:14:19.436Z,79.4
2017-08-03T08:15:21.112Z,78.8
2017-08-03T08:16:22.777Z,79.8
2017-08-03T08:17:24.450Z,79.0
2017-08-03T08:18:26.124Z,78.9
2017-08-03T08:19:27.794Z,78.8
2017-08-03T08:20:29.487Z,79.2
2017-08-03T08:21:31.170Z,78.6
2017-08-03T08:22:32.838Z,79.1
2017-08-03T08:23:34.513Z,78.9
2017-08-03T08:24:36.189Z,78.9
2017-08-03T08:25:37.859Z,78.6
2017-08-03T08:26:39.528Z,79.1
2017-08-03T08:27:41.200Z,78.8
2017-08-03T08:28:42.864Z,78.5
2017-08-03T08:29:44.541Z,78.4
2017-08-03T08:30:46.208Z,78.7
2017-08-03T08:31:47.883Z,78.3
2017-08-03T08:32:49.557Z,78.5
2017-08-03T08:33:51.222Z,77.6
2017-08-03T08:34:52.897Z,78.1
2017-08-03T08:35:54.573Z,77.6
2017-08-03T08:36:56.247Z,77.4
2017-08-03T08:38:03.524Z,77.7
2017-08-03T08:39:05.199Z,77.9
2017-08-03T08:40:06.865Z,78.4
2017-08-03T08:41:08.538Z,78.4
2017-08-03T08:42:10.219Z,77.6
2017-08-03T08:43:11.876Z,78.1
2017-08-03T08:44:13.555Z,77.4
2017-08-03T08:45:15.221Z,77.7
2017-08-03T08:46:16.883Z,77.2
2017-08-03T08:47:18.575Z,77.6
2017-08-03T08:48:20.242Z,77.7
2017-08-03T08:49:21.922Z,77.5
2017-08-03T08:50:23.608Z,77.3
2017-08-03T08:51:25.269Z,76.6
2017-08-03T08:52:26.937Z,76.6
2017-08-03T08:53:28.610Z,76.2
2017-08-03T08:54:30.279Z,76.0
2017-08-03T08:55:31.947Z,76.5
2017-08-03T08:56:33.624Z,76.4
2017-08-03T08:57:35.314Z,76.0
2017-08-03T08:58:36.977Z,75.8
2017-08-03T08:59:38.651Z,75.3
2017-08-03T09:00:40.314Z,74.5
2017-08-03T09:01:41.995Z,74.7
2017-08-03T09:02:43.669Z,73.8
2017-08-03T09:03:45.348Z,73.3
2017-08-03T09:04:47.016Z,73.7
2017-08-03T09:05:48.731Z,72.3
2017-08-03T09:06:50.414Z,71.4
2017-08-03T09:07:52.089Z,72.0
2017-08-03T09:08:53.769Z,70.8
2017-08-03T09:09:55.442Z,70.1
2017-08-03T09:10:57.127Z,70.5
2017-08-03T09:11:58.850Z,69.8
2017-08-03T09:13:00.536Z,68.2
2017-08-03T09:14:02.213Z,67.3
2017-08-03T09:15:03.886Z,65.9
2017-08-03T09:16:05.581Z,64.2
2017-08-03T09:17:07.253Z,63.7
2017-08-03T09:18:08.960Z,63.8
2017-08-03T09:19:10.627Z,59.8
2017-08-03T09:20:12.307Z,55.7
2017-08-03T09:21:13.985Z,55.6
2017-08-03T09:22:15.672Z,55.7
2017-08-03T09:23:17.407Z,53.7
2017-08-03T09:24:19.096Z,53.1
2017-08-03T09:25:20.776Z,53.0
2017-08-03T09:26:22.458Z,48.1
2017-08-03T09:27:24.143Z,47.4
2017-08-03T09:28:25.829Z,47.0
2017-08-03T09:29:27.512Z,44.8
2017-08-03T09:30:29.194Z,42.4
2017-08-03T09:31:30.881Z,42.6
2017-08-03T09:32:32.618Z,41.6
2017-08-03T09:33:34.305Z,41.2
2017-08-03T09:34:35.980Z,41.6
2017-08-03T09:35:37.668Z,39.9
2017-08-03T09:36:39.357Z,42.4
2017-08-03T09:37:41.035Z,41.9
2017-08-03T09:38:42.719Z,42.4
2017-08-03T09:39:44.406Z,41.2
2017-08-03T09:40:46.089Z,42.0
2017-08-03T09:41:47.783Z,42.1
2017-08-03T09:42:49.474Z,42.8
2017-08-03T09:43:51.157Z,42.1
2017-08-03T09:44:52.840Z,42.6
2017-08-03T09:45:54.526Z,41.6
2017-08-03T09:46:56.216Z,39.9
2017-08-03T09:47:57.892Z,41.1
2017-08-03T09:48:59.569Z,41.6
2017-08-03T09:50:01.257Z,43.3
2017-08-03T09:51:02.947Z,45.2
2017-08-03T09:52:04.623Z,45.5
2017-08-03T09:53:06.304Z,46.2
2017-08-03T09:54:07.987Z,47.1
2017-08-03T09:55:09.671Z,45.8
2017-08-03T09:56:11.349Z,45.7
2017-08-03T09:57:13.029Z,46.1
2017-08-03T09:58:14.708Z,46.7
2017-08-03T09:59:16.408Z,45.8
2017-08-03T10:00:18.089Z,47.5
2017-08-03T10:01:19.772Z,48.1
2017-08-03T10:02:21.449Z,48.3
2017-08-03T10:03:23.131Z,49.6
2017-08-03T10:04:24.807Z,50.4
2017-08-03T10:05:26.487Z,52.3
2017-08-03T10:06:28.199Z,50.6
2017-08-03T10:07:29.874Z,49.9
2017-08-03T10:08:31.556Z,49.6
2017-08-03T10:09:33.234Z,49.5
2017-08-03T10:10:34.916Z,50.3
2017-08-03T10:11:36.697Z,51.1
2017-08-03T10:12:38.376Z,52.3
2017-08-03T10:13:40.060Z,53.3
2017-08-03T10:14:41.740Z,54.2
2017-08-03T10:15:43.424Z,57.3
2017-08-03T10:16:45.101Z,57.4
2017-08-03T10:17:46.781Z,59.5
2017-08-03T10:18:48.525Z,64.1
2017-08-03T10:19:50.207Z,65.9
2017-08-03T10:20:52.804Z,68.4
2017-08-03T10:21:54.485Z,68.7
2017-08-03T10:22:56.179Z,70.4
2017-08-03T10:23:57.853Z,69.9
2017-08-03T10:24:59.528Z,71.3
2017-08-03T10:26:01.210Z,71.2
2017-08-03T10:27:02.877Z,72.6
2017-08-03T10:28:04.553Z,72.4
2017-08-03T10:29:06.241Z,72.3
2017-08-03T10:30:07.912Z,72.5
2017-08-03T10:31:09.590Z,72.4
2017-08-03T10:32:11.262Z,71.9
2017-08-03T10:33:12.939Z,71.8
2017-08-03T10:34:14.613Z,73.1
2017-08-03T10:35:16.297Z,70.6
2017-08-03T10:36:17.980Z,70.4
2017-08-03T10:37:20.630Z,71.7
2017-08-03T10:38:22.295Z,71.1
2017-08-03T10:39:23.966Z,70.3
2017-08-03T10:40:25.651Z,71.1
2017-08-03T10:41:27.332Z,70.3
2017-08-03T10:42:29.008Z,71.5
2017-08-03T10:43:30.682Z,71.3
2017-08-03T10:44:32.374Z,71.5
2017-08-03T10:45:34.060Z,71.3
2017-08-03T10:46:35.739Z,71.0
2017-08-03T10:47:37.416Z,70.8
2017-08-03T10:48:39.102Z,70.4
2017-08-03T10:49:40.783Z,69.8
2017-08-03T10:50:42.452Z,67.3
2017-08-03T10:51:44.134Z,66.4
2017-08-03T10:52:54.359Z,64.9
2017-08-03T10:53:56.055Z,66.2
2017-08-03T10:54:57.734Z,64.8
2017-08-03T10:55:59.404Z,65.4
2017-08-03T10:57:01.087Z,63.1
2017-08-03T10:58:02.758Z,61.3
2017-08-03T10:59:04.478Z,60.4
2017-08-03T11:00:06.159Z,60.7
2017-08-03T11:01:07.825Z,59.5
2017-08-03T11:02:09.507Z,58.8
2017-08-03T11:03:11.188Z,57.5
2017-08-03T11:04:12.876Z,56.5
2017-08-03T11:05:14.557Z,54.3
2017-08-03T11:06:16.242Z,51.5
2017-08-03T11:07:17.917Z,50.0
2017-08-03T11:08:19.597Z,50.2
2017-08-03T11:09:21.280Z,49.2
2017-08-03T11:10:22.956Z,48.0
2017-08-03T11:11:24.643Z,48.8
2017-08-03T11:12:26.319Z,48.6
2017-08-03T11:13:27.996Z,48.7
2017-08-03T11:14:29.680Z,48.5
2017-08-03T11:15:31.359Z,48.7
2017-08-03T11:16:33.040Z,47.8
2017-08-03T11:17:34.707Z,47.4
2017-08-03T11:18:36.388Z,45.7
2017-08-03T11:19:38.070Z,45.8
2017-08-03T11:20:39.766Z,45.1
2017-08-03T11:21:41.440Z,46.1
2017-08-03T11:22:43.123Z,47.0
2017-08-03T11:23:44.812Z,46.6
2017-08-03T11:24:46.487Z,45.7
2017-08-03T11:25:48.187Z,44.5
2017-08-03T11:26:49.866Z,41.9
2017-08-03T11:27:51.549Z,41.9
2017-08-03T11:28:53.224Z,41.6
2017-08-03T11:29:54.908Z,41.2
2017-08-03T11:30:56.585Z,39.1
2017-08-03T11:31:58.262Z,39.1
2017-08-03T11:32:59.950Z,40.2
2017-08-03T11:34:01.646Z,41.9
2017-08-03T11:35:04.201Z,42.0
2017-08-03T11:36:05.888Z,42.4
2017-08-03T11:37:07.574Z,42.4
2017-08-03T11:38:09.256Z,42.5
2017-08-03T11:39:10.936Z,42.4
2017-08-03T11:40:12.626Z,41.6
2017-08-03T11:41:14.306Z,41.5
2017-08-03T11:42:16.000Z,41.5
2017-08-03T11:43:17.678Z,41.7
2017-08-03T11:44:19.357Z,43.1
2017-08-03T11:45:21.041Z,44.3
2017-08-03T11:46:22.718Z,45.8
2017-08-03T11:47:24.403Z,46.6
2017-08-03T11:48:26.086Z,48.0
2017-08-03T11:49:27.800Z,47.7
2017-08-03T11:50:29.483Z,47.1
2017-08-03T11:51:31.157Z,47.3
2017-08-03T11:52:32.836Z,47.3
2017-08-03T11:53:34.520Z,46.7
2017-08-03T11:54:36.203Z,46.0
2017-08-03T11:55:37.882Z,47.7
2017-08-03T11:56:39.565Z,49.8
2017-08-03T11:57:41.262Z,51.3
2017-08-03T11:58:42.944Z,52.2
2017-08-03T11:59:44.635Z,53.3
2017-08-03T12:00:46.333Z,54.2
2017-08-03T12:01:48.006Z,55.5
2017-08-03T12:02:49.682Z,56.2
2017-08-03T12:03:51.360Z,56.7
2017-08-03T12:04:53.035Z,58.0
2017-08-03T12:05:54.713Z,57.9
2017-08-03T12:06:56.400Z,58.6
2017-08-03T12:07:58.097Z,59.1
2017-08-03T12:08:59.774Z,59.3
2017-08-03T12:10:01.450Z,59.9
2017-08-03T12:11:03.130Z,60.3
2017-08-03T12:12:04.801Z,60.0
2017-08-03T12:13:06.469Z,61.1
2017-08-03T12:14:08.154Z,62.5
2017-08-03T12:15:09.819Z,63.1
2017-08-03T12:16:11.507Z,64.2
2017-08-03T12:17:13.173Z,64.4
2017-08-03T12:18:14.842Z,65.0
2017-08-03T12:19:16.512Z,64.8
2017-08-03T12:20:18.186Z,64.9
2017-08-03T12:21:19.854Z,65.4
2017-08-03T12:22:21.529Z,64.7
2017-08-03T12:23:23.200Z,65.0
2017-08-03T12:24:24.877Z,65.9
2017-08-03T12:25:26.546Z,66.0
2017-08-03T12:26:28.210Z,66.1
2017-08-03T12:27:29.889Z,66.6
2017-08-03T12:28:31.565Z,67.0
2017-08-03T12:29:33.242Z,67.5
2017-08-03T12:30:34.923Z,67.7
2017-08-03T12:31:36.591Z,68.4
2017-08-03T12:32:38.273Z,69.6
2017-08-03T12:33:39.943Z,69.0
2017-08-03T12:34:41.614Z,69.6
2017-08-03T12:35:43.283Z,69.1
2017-08-03T12:36:44.964Z,69.9
2017-08-03T12:37:46.635Z,70.7
2017-08-03T12:38:48.306Z,70.7
2017-08-03T12:39:49.979Z,70.9
2017-08-03T12:40:51.645Z,70.6
2017-08-03T12:41:53.316Z,71.0
2017-08-03T12:42:54.992Z,70.6
2017-08-03T12:43:56.658Z,70.7
2017-08-03T12:44:58.333Z,70.2
2017-08-03T12:46:00.008Z,70.7
2017-08-03T12:47:01.725Z,71.0
2017-08-03T12:48:03.391Z,71.1
2017-08-03T12:49:05.065Z,71.3
2017-08-03T12:50:06.765Z,72.0
2017-08-03T12:51:08.483Z,71.4
2017-08-03T12:52:10.155Z,71.9
2017-08-03T12:53:12.593Z,72.0
2017-08-03T12:54:14.267Z,72.5
2017-08-03T12:55:16.655Z,72.5
2017-08-03T12:56:18.323Z,72.9
2017-08-03T12:57:19.990Z,73.2
2017-08-03T12:58:21.668Z,73.4
2017-08-03T12:59:23.343Z,73.8
2017-08-03T13:00:25.020Z,73.5
2017-08-03T13:01:26.696Z,73.8
2017-08-03T13:02:28.365Z,74.5
2017-08-03T13:03:30.041Z,73.2
2017-08-03T13:04:31.724Z,73.1
2017-08-03T13:05:33.397Z,73.9
2017-08-03T13:06:35.076Z,74.1
2017-08-03T13:07:36.746Z,74.9
2017-08-03T13:08:38.423Z,74.7
2017-08-03T13:09:40.095Z,74.8
2017-08-03T13:10:41.766Z,74.8
2017-08-03T13:11:43.434Z,75.3
2017-08-03T13:12:45.105Z,75.4
2017-08-03T13:13:46.775Z,75.3
2017-08-03T13:14:48.447Z,75.1
2017-08-03T13:15:50.119Z,75.1
2017-08-03T13:16:51.789Z,75.5
2017-08-03T13:17:53.454Z,75.1
2017-08-03T13:18:55.114Z,75.6
2017-08-03T13:19:56.799Z,76.2
2017-08-03T13:20:58.475Z,75.9
2017-08-03T13:22:00.147Z,76.5
2017-08-03T13:23:01.818Z,76.7
2017-08-03T13:24:03.483Z,76.5
2017-08-03T13:25:05.150Z,76.7
2017-08-03T13:26:06.826Z,77.2
2017-08-03T13:27:08.489Z,76.9
2017-08-03T13:28:10.161Z,77.3
2017-08-03T13:29:14.175Z,77.4
2017-08-03T13:30:15.843Z,77.3
2017-08-03T13:31:17.511Z,77.0
2017-08-03T13:32:19.181Z,77.3
2017-08-03T13:33:20.844Z,77.5
2017-08-03T13:34:22.518Z,77.6
2017-08-03T13:35:24.194Z,77.4
2017-08-03T13:36:25.857Z,77.4
2017-08-03T13:37:27.535Z,77.4
2017-08-03T13:38:29.214Z,77.0
2017-08-03T13:39:30.896Z,77.5
2017-08-03T13:40:32.580Z,77.4
2017-08-03T13:41:34.251Z,77.4